Time;durP1;ratioP1;P1;durP2;ratioP2;P2;SDS_P1;SDS_P2;PMS_P1;PMS_P2;Temp;Humidity;BMP_temperature;BMP_pressure;BME280_temperature;BME280_humidity;BME280_pressure;Samples;Min_cycle;Max_cycle;Signal;HPM_P1;HPM_P2
2021/12/24 00:00:06;;;;;;;1999.90;999.90;;;7.30;99.90;;;;;;5051510;28;20442;-67
2021/12/24 00:02:34;;;;;;;1999.90;999.90;;;7.30;99.90;;;;;;5050627;28;20442;-65
2021/12/24 00:05:00;;;;;;;1999.90;999.90;;;7.70;99.90;;;;;;5051670;28;20492;-67
2021/12/24 00:07:28;;;;;;;1999.90;999.90;;;7.50;99.90;;;;;;5049687;28;20478;-66
2021/12/24 00:09:55;;;;;;;1999.90;999.90;;;7.50;99.90;;;;;;5056476;28;20450;-67
2021/12/24 00:12:23;;;;;;;1999.90;999.90;;;7.50;99.90;;;;;;5054984;28;20478;-66
2021/12/24 00:14:54;;;;;;;1999.90;999.90;;;7.30;99.90;;;;;;5056772;28;20495;-66
2021/12/24 00:17:27;;;;;;;1999.90;999.90;;;7.30;99.90;;;;;;5056064;28;20450;-67
2021/12/24 00:20:15;;;;;;;1999.90;999.90;;;7.30;99.90;;;;;;5057134;28;20450;-67
2021/12/24 00:23:12;;;;;;;1999.90;999.90;;;7.20;99.90;;;;;;5057782;28;20446;-65
2021/12/24 00:36:42;;;;;;;1999.90;999.90;;;7.20;99.90;;;;;;5057484;28;20444;-66
2021/12/24 00:39:08;;;;;;;1999.90;999.90;;;7.20;99.90;;;;;;5057175;28;20478;-67
2021/12/24 00:41:35;;;;;;;1999.90;999.90;;;7.30;99.90;;;;;;5057151;28;20508;-67
2021/12/24 00:44:02;;;;;;;1999.90;999.90;;;7.20;99.90;;;;;;5057779;28;20449;-67
2021/12/24 00:46:28;;;;;;;1999.90;999.90;;;7.30;99.90;;;;;;5057355;28;20447;-67
2021/12/24 00:48:57;;;;;;;1999.90;999.90;;;7.20;99.90;;;;;;5056939;28;20488;-67
2021/12/24 00:51:31;;;;;;;1999.90;999.90;;;7.20;99.90;;;;;;5056685;28;20537;-66
2021/12/24 00:56:43;;;;;;;1999.90;999.90;;;7.30;99.90;;;;;;5056548;28;20422;-67
2021/12/24 00:59:10;;;;;;;1999.90;999.90;;;7.30;99.90;;;;;;5056987;28;20556;-67
2021/12/24 01:01:36;;;;;;;1999.90;999.90;;;7.50;99.90;;;;;;5056250;28;20515;-66
2021/12/24 01:04:03;;;;;;;1999.90;999.90;;;7.30;99.90;;;;;;5056949;28;20446;-67
2021/12/24 01:06:30;;;;;;;1999.90;999.90;;;7.40;99.90;;;;;;5060368;28;20476;-68
2021/12/24 01:08:57;;;;;;;1999.90;999.90;;;7.30;99.90;;;;;;5061209;28;20527;-67
2021/12/24 01:11:27;;;;;;;1999.90;999.90;;;7.60;99.90;;;;;;5060379;28;20454;-67
2021/12/24 01:13:53;;;;;;;1999.90;999.90;;;7.50;99.90;;;;;;5060715;28;20477;-69
2021/12/24 01:16:26;;;;;;;1999.90;999.90;;;7.50;99.90;;;;;;5060045;28;20450;-67
2021/12/24 01:19:00;;;;;;;1999.90;999.90;;;7.50;99.90;;;;;;5060403;28;20465;-68
2021/12/24 01:21:42;;;;;;;1999.90;999.90;;;7.50;99.90;;;;;;5056397;28;20455;-68
2021/12/24 01:24:13;;;;;;;1999.90;999.90;;;8.00;99.90;;;;;;5056977;28;20975;-67
2021/12/24 01:26:49;;;;;;;1999.90;999.90;;;7.50;99.90;;;;;;5056699;28;20462;-67
2021/12/24 01:29:43;;;;;;;1999.90;999.90;;;7.50;99.90;;;;;;5057869;28;20568;-68
2021/12/24 01:37:56;;;;;;;1999.90;999.90;;;7.40;99.90;;;;;;5057628;28;20493;-68
2021/12/24 01:40:26;;;;;;;1999.90;999.90;;;7.30;99.90;;;;;;5057104;28;20439;-67
2021/12/24 01:42:55;;;;;;;1999.90;999.90;;;7.60;99.90;;;;;;5058116;28;20468;-68
2021/12/24 01:45:24;;;;;;;1999.90;999.90;;;7.30;99.90;;;;;;5056764;28;20461;-68
2021/12/24 01:47:52;;;;;;;1999.90;999.90;;;7.30;99.90;;;;;;5057752;28;20527;-67
2021/12/24 01:50:20;;;;;;;1999.90;999.90;;;7.30;99.90;;;;;;5056673;28;20861;-69
2021/12/24 01:52:50;;;;;;;1999.90;999.90;;;7.30;99.90;;;;;;5057425;28;20482;-68
2021/12/24 01:55:18;;;;;;;1999.90;999.90;;;7.60;99.90;;;;;;5057349;28;20451;-67
2021/12/24 01:57:45;;;;;;;1999.90;999.90;;;7.40;99.90;;;;;;5057075;28;20516;-67
2021/12/24 02:00:17;;;;;;;1999.90;999.90;;;7.40;99.90;;;;;;5057532;28;20510;-68
2021/12/24 02:02:44;;;;;;;1999.90;999.90;;;7.50;99.90;;;;;;5056218;28;21008;-67
2021/12/24 02:05:10;;;;;;;1999.90;999.90;;;7.40;99.90;;;;;;5057631;28;20438;-68
2021/12/24 02:07:37;;;;;;;1999.90;999.90;;;7.50;99.90;;;;;;5056458;28;20466;-67
2021/12/24 02:10:07;;;;;;;1999.90;999.90;;;7.50;99.90;;;;;;5050950;28;20533;-68
2021/12/24 02:12:34;;;;;;;1999.90;999.90;;;7.50;99.90;;;;;;5056589;28;20504;-68
2021/12/24 02:15:02;;;;;;;1999.90;999.90;;;7.50;99.90;;;;;;5070368;28;20450;-67
2021/12/24 02:17:53;;;;;;;1999.90;999.90;;;7.60;99.90;;;;;;5059668;28;20451;-67
2021/12/24 02:28:38;;;;;;;1999.90;999.90;;;7.60;99.90;;;;;;5058626;28;20489;-67
2021/12/24 02:31:07;;;;;;;1999.90;999.90;;;7.60;99.90;;;;;;5069919;28;20450;-67
2021/12/24 02:33:34;;;;;;;1999.90;999.90;;;7.60;99.90;;;;;;5057190;28;20512;-67
2021/12/24 02:36:03;;;;;;;1999.90;999.90;;;7.60;99.90;;;;;;5046167;28;20510;-67
2021/12/24 02:38:30;;;;;;;1999.90;999.90;;;7.60;99.90;;;;;;5067013;28;20530;-67
2021/12/24 02:40:56;;;;;;;1999.90;999.90;;;7.80;99.90;;;;;;5061546;28;20505;-67
2021/12/24 02:43:24;;;;;;;1999.90;999.90;;;7.70;99.90;;;;;;5055608;28;20490;-68
2021/12/24 02:45:55;;;;;;;1999.90;999.90;;;8.00;99.90;;;;;;5055628;28;20458;-67
2021/12/24 02:48:45;;;;;;;1999.90;999.90;;;7.60;99.90;;;;;;5055976;28;20844;-67
2021/12/24 02:53:58;;;;;;;1999.90;999.90;;;7.60;99.90;;;;;;5056391;28;20481;-68
2021/12/24 02:56:29;;;;;;;1999.90;999.90;;;7.80;99.90;;;;;;5055480;28;20456;-67
2021/12/24 02:58:56;;;;;;;1999.90;999.90;;;7.90;99.90;;;;;;5053955;28;20535;-67
2021/12/24 03:01:24;;;;;;;1999.90;999.90;;;8.10;99.90;;;;;;5036398;28;20451;-67
2021/12/24 03:03:51;;;;;;;1999.90;999.90;;;7.70;99.90;;;;;;5034860;28;20447;-67
2021/12/24 03:06:21;;;;;;;1999.90;999.90;;;8.10;99.90;;;;;;5035641;28;20447;-67
2021/12/24 03:08:48;;;;;;;1999.90;999.90;;;7.80;99.90;;;;;;5050621;28;20516;-67
2021/12/24 03:11:14;;;;;;;1999.90;999.90;;;7.70;99.90;;;;;;5055621;28;20459;-67
2021/12/24 03:13:42;;;;;;;1999.90;999.90;;;7.70;99.90;;;;;;5055420;28;20478;-67
2021/12/24 03:16:09;;;;;;;1999.90;999.90;;;7.70;99.90;;;;;;5054937;28;20533;-67
2021/12/24 03:18:38;;;;;;;1999.90;999.90;;;8.30;99.90;;;;;;5055787;28;20467;-68
2021/12/24 03:21:10;;;;;;;1999.90;999.90;;;8.00;99.90;;;;;;5055371;28;20482;-67
2021/12/24 03:23:41;;;;;;;1999.90;999.90;;;7.80;99.90;;;;;;5055277;28;20538;-67
2021/12/24 03:26:10;;;;;;;1999.90;999.90;;;8.00;99.90;;;;;;5054542;28;20957;-67
2021/12/24 03:28:37;;;;;;;1999.90;999.90;;;7.90;99.90;;;;;;5055586;28;20466;-67
2021/12/24 03:31:05;;;;;;;1999.90;999.90;;;8.10;99.90;;;;;;5053825;28;20446;-67
2021/12/24 03:33:33;;;;;;;1999.90;999.90;;;7.90;99.90;;;;;;5054006;28;20477;-67
2021/12/24 03:36:00;;;;;;;1999.90;999.90;;;7.90;99.90;;;;;;5052398;28;20461;-67
2021/12/24 03:38:27;;;;;;;1999.90;999.90;;;7.90;99.90;;;;;;5052642;28;20470;-67
2021/12/24 03:40:55;;;;;;;1999.90;999.90;;;8.00;99.90;;;;;;5052973;28;20446;-68
2021/12/24 03:43:21;;;;;;;1999.90;999.90;;;8.10;99.90;;;;;;5051866;28;20477;-68
2021/12/24 03:45:58;;;;;;;1999.90;999.90;;;8.40;99.90;;;;;;5052289;28;20840;-67
2021/12/24 03:48:37;;;;;;;1999.90;999.90;;;8.00;99.90;;;;;;5052136;28;20553;-67
2021/12/24 03:51:19;;;;;;;1999.90;999.90;;;8.10;99.90;;;;;;5051608;28;20500;-67
2021/12/24 03:56:33;;;;;;;1999.90;999.90;;;8.00;99.90;;;;;;5051845;28;20495;-67
2021/12/24 03:59:00;;;;;;;1999.90;999.90;;;8.40;99.90;;;;;;5052522;28;20466;-67
2021/12/24 04:01:27;;;;;;;1999.90;999.90;;;8.00;99.90;;;;;;5051466;28;20811;-68
2021/12/24 04:03:54;;;;;;;1999.90;999.90;;;8.20;99.90;;;;;;5052783;28;20446;-66
2021/12/24 04:06:20;;;;;;;1999.90;999.90;;;8.00;99.90;;;;;;5051370;28;20450;-67
2021/12/24 04:08:47;;;;;;;1999.90;999.90;;;8.10;99.90;;;;;;5051264;28;20462;-67
2021/12/24 04:11:13;;;;;;;1999.90;999.90;;;8.60;99.90;;;;;;5051321;28;20477;-67
2021/12/24 04:13:42;;;;;;;1999.90;999.90;;;8.10;99.90;;;;;;5051943;28;20474;-68
2021/12/24 04:16:09;;;;;;;1999.90;999.90;;;8.10;99.90;;;;;;5051318;28;20477;-68
2021/12/24 04:18:43;;;;;;;1999.90;999.90;;;8.00;99.90;;;;;;5051570;28;20492;-67
2021/12/24 04:26:40;;;;;;;1999.90;999.90;;;8.00;99.90;;;;;;5053218;28;20445;-67
2021/12/24 04:29:08;;;;;;;1999.90;999.90;;;8.10;99.90;;;;;;5053392;28;20470;-67
2021/12/24 04:31:42;;;;;;;1999.90;999.90;;;8.00;99.90;;;;;;5051288;28;20825;-68
2021/12/24 04:34:10;;;;;;;1999.90;999.90;;;8.10;99.90;;;;;;5051712;28;20493;-67
2021/12/24 04:36:53;;;;;;;1999.90;999.90;;;8.10;99.90;;;;;;5053176;28;20446;-68
2021/12/24 04:39:48;;;;;;;1999.90;999.90;;;8.10;99.90;;;;;;5052356;28;20484;-68
2021/12/24 05:01:12;;;;;;;1999.90;999.90;;;8.00;99.90;;;;;;5056838;28;20489;-67
2021/12/24 05:01:48;;;;;;;1999.90;999.90;;;8.20;99.90;;;;;;5067228;28;20437;-68
2021/12/24 05:04:16;;;;;;;1999.90;999.90;;;8.20;99.90;;;;;;5068725;28;20920;-65
2021/12/24 05:06:51;;;;;;;1999.90;999.90;;;8.40;99.90;;;;;;5049395;28;20445;-67
2021/12/24 05:09:22;;;;;;;1999.90;999.90;;;8.10;99.90;;;;;;5071703;28;20468;-66
2021/12/24 05:11:49;;;;;;;1999.90;999.90;;;8.20;99.90;;;;;;5056464;28;20533;-67
2021/12/24 05:14:16;;;;;;;1999.90;999.90;;;8.20;99.90;;;;;;5055862;28;20477;-67
2021/12/24 05:16:47;;;;;;;1999.90;999.90;;;8.20;99.90;;;;;;5054775;28;20450;-68
2021/12/24 05:21:59;;;;;;;1999.90;999.90;;;8.20;99.90;;;;;;5034704;28;20486;-67
2021/12/24 05:24:30;;;;;;;1999.90;999.90;;;8.20;99.90;;;;;;5035115;28;20509;-67
2021/12/24 05:26:59;;;;;;;1999.90;999.90;;;8.30;99.90;;;;;;5035363;28;20459;-67
2021/12/24 05:29:26;;;;;;;1999.90;999.90;;;8.40;99.90;;;;;;5039080;28;20478;-68
2021/12/24 05:31:54;;;;;;;1999.90;999.90;;;8.40;99.90;;;;;;5035817;28;20513;-67
2021/12/24 05:34:21;;;;;;;1999.90;999.90;;;8.40;99.90;;;;;;5034931;28;20482;-67
2021/12/24 05:36:49;;;;;;;1999.90;999.90;;;8.40;99.90;;;;;;5052435;28;20834;-67
2021/12/24 05:39:17;;;;;;;1999.90;999.90;;;8.40;99.90;;;;;;5055464;28;20564;-67
2021/12/24 05:41:45;;;;;;;1999.90;999.90;;;8.50;99.90;;;;;;5055076;28;20447;-66
2021/12/24 05:44:15;;;;;;;1999.90;999.90;;;8.50;99.90;;;;;;5054854;28;20450;-67
2021/12/24 05:46:42;;;;;;;1999.90;999.90;;;8.50;99.90;;;;;;5054348;28;20481;-67
2021/12/24 05:49:11;;;;;;;1999.90;999.90;;;8.50;99.90;;;;;;5054708;28;20547;-68
2021/12/24 05:51:37;;;;;;;1999.90;999.90;;;8.60;99.90;;;;;;5054406;28;20947;-67
2021/12/24 05:54:05;;;;;;;1999.90;999.90;;;8.60;99.90;;;;;;5054801;28;20543;-67
2021/12/24 05:56:31;;;;;;;1999.90;999.90;;;8.70;99.90;;;;;;5054387;28;20528;-68
2021/12/24 05:58:58;;;;;;;1999.90;999.90;;;8.70;99.90;;;;;;5055525;28;20479;-67
2021/12/24 06:01:25;;;;;;;1999.90;999.90;;;8.70;99.90;;;;;;5054844;28;20524;-68
2021/12/24 06:03:52;;;;;;;1999.90;999.90;;;8.80;99.90;;;;;;5055387;28;20446;-67
2021/12/24 06:06:20;;;;;;;1999.90;999.90;;;8.80;99.90;;;;;;5054126;28;20450;-67
2021/12/24 06:08:46;;;;;;;1999.90;999.90;;;8.80;99.90;;;;;;5054564;28;20466;-67
2021/12/24 06:11:13;;;;;;;1999.90;999.90;;;8.80;99.90;;;;;;5055796;28;20500;-67
2021/12/24 06:13:40;;;;;;;1999.90;999.90;;;9.20;99.90;;;;;;5055568;28;20443;-68
2021/12/24 06:16:09;;;;;;;1999.90;999.90;;;8.90;99.90;;;;;;5054545;28;20454;-67
2021/12/24 06:18:38;;;;;;;1999.90;999.90;;;9.20;99.90;;;;;;5054764;28;20551;-67
2021/12/24 06:21:06;;;;;;;1999.90;999.90;;;8.90;99.90;;;;;;5053985;28;20447;-66
2021/12/24 06:23:36;;;;;;;1999.90;999.90;;;8.90;99.90;;;;;;5053880;28;20953;-67
2021/12/24 06:26:03;;;;;;;1999.90;999.90;;;9.00;99.90;;;;;;5054291;28;20453;-67
2021/12/24 06:28:30;;;;;;;1999.90;999.90;;;9.00;99.90;;;;;;5052921;28;20498;-66
2021/12/24 06:30:57;;;;;;;1999.90;999.90;;;9.00;99.90;;;;;;5053663;28;20497;-67
2021/12/24 06:33:24;;;;;;;1999.90;999.90;;;9.00;99.90;;;;;;5053535;28;20500;-67
2021/12/24 06:35:53;;;;;;;1999.90;999.90;;;9.10;99.90;;;;;;5053790;28;20536;-68
2021/12/24 06:38:20;;;;;;;1999.90;999.90;;;9.10;99.90;;;;;;5053822;28;21012;-68
2021/12/24 06:40:48;;;;;;;1999.90;999.90;;;9.50;99.90;;;;;;5054114;28;20442;-67
2021/12/24 06:43:15;;;;;;;1999.90;999.90;;;9.20;99.90;;;;;;5053805;28;20459;-67
2021/12/24 06:45:42;;;;;;;1999.90;999.90;;;9.30;99.90;;;;;;5052873;28;20996;-67
2021/12/24 06:48:08;;;;;;;1999.90;999.90;;;9.30;99.90;;;;;;5053896;28;20466;-67
2021/12/24 06:50:35;;;;;;;1999.90;999.90;;;9.40;99.90;;;;;;5053182;28;20453;-67
2021/12/24 06:53:02;;;;;;;1999.90;999.90;;;9.40;99.90;;;;;;5053408;28;20450;-67
2021/12/24 06:55:29;;;;;;;1999.90;999.90;;;9.40;99.90;;;;;;5052672;28;20529;-67
2021/12/24 06:57:58;;;;;;;1999.90;999.90;;;9.40;99.90;;;;;;5052421;28;20478;-67
2021/12/24 07:00:26;;;;;;;1999.90;999.90;;;9.40;99.90;;;;;;5052244;28;20476;-67
2021/12/24 07:02:53;;;;;;;1999.90;999.90;;;9.50;99.90;;;;;;5052073;28;20451;-68
2021/12/24 07:05:19;;;;;;;1999.90;999.90;;;9.40;99.90;;;;;;5052738;28;20476;-67
2021/12/24 07:07:46;;;;;;;1999.90;999.90;;;9.40;99.90;;;;;;5052429;28;20462;-67
2021/12/24 07:10:13;;;;;;;1999.90;999.90;;;9.40;99.90;;;;;;5050783;28;20465;-68
2021/12/24 07:12:40;;;;;;;1999.90;999.90;;;9.60;99.90;;;;;;5050681;28;21012;-67
2021/12/24 07:15:09;;;;;;;1999.90;999.90;;;9.40;99.90;;;;;;5060174;28;20485;-67
2021/12/24 07:17:35;;;;;;;1999.90;999.90;;;9.40;99.90;;;;;;5051738;28;20496;-68
2021/12/24 07:20:03;;;;;;;1999.90;999.90;;;9.40;99.90;;;;;;5060544;28;20471;-66
2021/12/24 07:22:29;;;;;;;1999.90;999.90;;;9.40;99.90;;;;;;5054254;28;20487;-67
2021/12/24 07:24:56;;;;;;;1999.90;999.90;;;9.40;99.90;;;;;;5058772;28;20506;-67
2021/12/24 07:27:23;;;;;;;1999.90;999.90;;;9.50;99.90;;;;;;5062937;28;21010;-67
2021/12/24 07:29:49;;;;;;;1999.90;999.90;;;9.50;99.90;;;;;;5056828;28;20500;-67
2021/12/24 07:32:17;;;;;;;1999.90;999.90;;;9.60;99.90;;;;;;5056001;28;20942;-67
2021/12/24 07:34:44;;;;;;;1999.90;999.90;;;9.50;99.90;;;;;;5069236;28;20523;-67
2021/12/24 07:37:10;;;;;;;1999.90;999.90;;;9.60;99.90;;;;;;5067010;28;20473;-67
2021/12/24 07:39:37;;;;;;;1999.90;999.90;;;9.50;99.90;;;;;;5061532;28;20548;-68
2021/12/24 07:42:04;;;;;;;1999.90;999.90;;;9.50;99.90;;;;;;5053087;28;20496;-66
2021/12/24 07:44:34;;;;;;;1999.90;999.90;;;9.50;99.90;;;;;;5049385;28;20485;-67
2021/12/24 07:47:02;;;;;;;1999.90;999.90;;;9.50;99.90;;;;;;5049243;28;21020;-67
2021/12/24 07:49:37;;;;;;;1999.90;999.90;;;9.50;99.90;;;;;;5051669;28;20478;-65
2021/12/24 07:52:09;;;;;;;1999.90;999.90;;;9.50;99.90;;;;;;5051936;28;20450;-67
2021/12/24 07:54:38;;;;;;;1999.90;999.90;;;9.60;99.90;;;;;;5051603;28;20469;-67
2021/12/24 07:57:06;;;;;;;1999.90;999.90;;;10.00;99.90;;;;;;5051687;28;20454;-67
2021/12/24 07:59:35;;;;;;;1999.90;999.90;;;9.60;99.90;;;;;;5051642;28;20496;-67
2021/12/24 08:02:02;;;;;;;1999.90;999.90;;;9.60;99.90;;;;;;5051536;28;20493;-67
2021/12/24 08:04:31;;;;;;;1999.90;999.90;;;9.70;99.90;;;;;;5051886;28;20501;-67
2021/12/24 08:07:01;;;;;;;1999.90;999.90;;;9.60;99.90;;;;;;5051383;28;20447;-68
2021/12/24 08:09:28;;;;;;;1999.90;999.90;;;9.70;99.90;;;;;;5051254;28;20990;-67
2021/12/24 08:11:54;;;;;;;1999.90;999.90;;;9.70;99.90;;;;;;5050897;28;20492;-67
2021/12/24 08:14:21;;;;;;;1999.90;999.90;;;9.70;99.90;;;;;;5050881;28;20816;-67
2021/12/24 08:16:47;;;;;;;1999.90;999.90;;;9.70;99.90;;;;;;5049910;28;20446;-67
2021/12/24 08:19:16;;;;;;;1999.90;999.90;;;9.80;99.90;;;;;;5051748;28;20501;-67
2021/12/24 08:21:45;;;;;;;1999.90;999.90;;;9.80;99.90;;;;;;5051360;28;20954;-67
2021/12/24 08:24:12;;;;;;;1999.90;999.90;;;9.80;99.90;;;;;;5051915;28;20499;-67
2021/12/24 08:26:38;;;;;;;1999.90;999.90;;;9.80;99.90;;;;;;5051942;28;20446;-68
2021/12/24 08:29:05;;;;;;;1999.90;999.90;;;9.80;99.90;;;;;;5052612;28;20469;-67
2021/12/24 08:31:34;;;;;;;1999.90;999.90;;;9.80;99.90;;;;;;5055561;28;20504;-67
2021/12/24 08:34:00;;;;;;;1999.90;999.90;;;10.40;99.90;;;;;;5055633;28;20747;-67
2021/12/24 08:36:27;;;;;;;1999.90;999.90;;;9.80;99.90;;;;;;5047507;28;20509;-66
2021/12/24 08:38:56;;;;;;;1999.90;999.90;;;9.80;99.90;;;;;;5054472;28;20474;-65
2021/12/24 08:41:22;;;;;;;1999.90;999.90;;;10.20;99.90;;;;;;5053182;28;20537;-67
2021/12/24 08:43:49;;;;;;;1999.90;999.90;;;9.80;99.90;;;;;;5052184;28;20454;-67
2021/12/24 08:46:16;;;;;;;1999.90;999.90;;;9.80;99.90;;;;;;5054139;28;20442;-68
2021/12/24 08:48:42;;;;;;;1999.90;999.90;;;9.80;99.90;;;;;;5055323;28;20458;-68
2021/12/24 08:51:09;;;;;;;1999.90;999.90;;;9.90;99.90;;;;;;5054665;28;20478;-67
2021/12/24 08:53:35;;;;;;;1999.90;999.90;;;9.90;99.90;;;;;;5055049;28;20441;-67
2021/12/24 08:56:04;;;;;;;1999.90;999.90;;;10.00;99.90;;;;;;5055413;28;20892;-67
2021/12/24 08:58:32;;;;;;;1999.90;999.90;;;9.90;99.90;;;;;;5054980;28;20466;-67
2021/12/24 09:00:59;;;;;;;1999.90;999.90;;;9.90;99.90;;;;;;5055036;28;20537;-66
2021/12/24 09:03:26;;;;;;;1999.90;999.90;;;10.00;99.90;;;;;;5054485;28;20879;-67
2021/12/24 09:05:53;;;;;;;1999.90;999.90;;;10.00;99.90;;;;;;5041013;28;20443;-68
2021/12/24 09:08:19;;;;;;;1999.90;999.90;;;10.00;99.90;;;;;;5034832;28;20467;-68
2021/12/24 09:10:46;;;;;;;1999.90;999.90;;;10.00;99.90;;;;;;5034906;28;21021;-67
2021/12/24 09:13:14;;;;;;;1999.90;999.90;;;10.00;99.90;;;;;;5042561;28;20450;-67
2021/12/24 09:15:41;;;;;;;1999.90;999.90;;;10.00;99.90;;;;;;5054237;28;21067;-67
2021/12/24 09:18:08;;;;;;;1999.90;999.90;;;10.00;99.90;;;;;;5054995;28;20535;-67
2021/12/24 09:20:40;;;;;;;1999.90;999.90;;;10.00;99.90;;;;;;5054456;28;20458;-67
2021/12/24 09:23:09;;;;;;;1999.90;999.90;;;10.10;99.90;;;;;;5054981;28;20498;-67
2021/12/24 09:25:36;;;;;;;1999.90;999.90;;;10.00;99.90;;;;;;5054692;28;20457;-66
2021/12/24 09:28:04;;;;;;;1999.90;999.90;;;10.10;99.90;;;;;;5054319;28;20478;-67
2021/12/24 09:30:33;;;;;;;1999.90;999.90;;;10.00;99.90;;;;;;5053595;28;20446;-67
2021/12/24 09:33:00;;;;;;;1999.90;999.90;;;10.00;99.90;;;;;;5064940;28;20461;-67
2021/12/24 09:35:28;;;;;;;1999.90;999.90;;;10.00;99.90;;;;;;5054300;28;20856;-67
2021/12/24 09:37:55;;;;;;;1999.90;999.90;;;10.00;99.90;;;;;;5053820;28;21033;-67
2021/12/24 09:40:22;;;;;;;1999.90;999.90;;;10.10;99.90;;;;;;5055108;28;20537;-67
2021/12/24 09:42:49;;;;;;;1999.90;999.90;;;10.10;99.90;;;;;;5053425;28;20935;-66
2021/12/24 09:45:18;;;;;;;1999.90;999.90;;;10.30;99.90;;;;;;5061453;28;20450;-65
2021/12/24 09:47:46;;;;;;;1999.90;999.90;;;10.20;99.90;;;;;;5050237;28;20536;-66
2021/12/24 09:50:16;;;;;;;1999.90;999.90;;;10.20;99.90;;;;;;5055702;28;20449;-68
2021/12/24 09:52:45;;;;;;;1999.90;999.90;;;10.20;99.90;;;;;;5062019;28;20848;-67
2021/12/24 09:55:14;;;;;;;1999.90;999.90;;;10.20;99.90;;;;;;5068247;28;20490;-66
2021/12/24 09:57:42;;;;;;;1999.90;999.90;;;10.20;99.90;;;;;;5041969;28;20531;-65
2021/12/24 10:00:11;;;;;;;1999.90;999.90;;;10.20;99.90;;;;;;5048747;28;20446;-68
2021/12/24 10:02:42;;;;;;;1999.90;999.90;;;10.20;99.90;;;;;;5053551;28;21003;-67
2021/12/24 10:05:33;;;;;;;1999.90;999.90;;;10.10;99.90;;;;;;5050756;28;20446;-68
2021/12/24 10:08:10;;;;;;;1999.90;999.90;;;10.10;99.90;;;;;;5034733;28;20460;-68
2021/12/24 10:10:41;;;;;;;1999.90;999.90;;;10.00;99.90;;;;;;5034051;28;20443;-67
2021/12/24 10:13:28;;;;;;;1999.90;999.90;;;10.10;99.90;;;;;;5033781;28;20451;-67
2021/12/24 10:15:58;;;;;;;1999.90;999.90;;;10.10;99.90;;;;;;5052142;28;20543;-67
2021/12/24 10:18:34;;;;;;;1999.90;999.90;;;10.10;99.90;;;;;;5052960;28;20501;-67
2021/12/24 10:21:05;;;;;;;1999.90;999.90;;;10.00;99.90;;;;;;5052706;28;20446;-64
2021/12/24 10:23:54;;;;;;;1999.90;999.90;;;10.00;99.90;;;;;;5069524;28;20442;-65
2021/12/24 10:26:24;;;;;;;1999.90;999.90;;;10.00;99.90;;;;;;5051055;28;20902;-63
2021/12/24 10:28:59;;;;;;;1999.90;999.90;;;10.00;99.90;;;;;;5059801;28;20466;-64
2021/12/24 10:31:28;;;;;;;1999.90;999.90;;;10.10;99.90;;;;;;5058379;28;20957;-63
2021/12/24 10:34:13;;;;;;;1999.90;999.90;;;10.10;99.90;;;;;;5062629;28;20434;-64
2021/12/24 10:37:07;;;;;;;1999.90;999.90;;;10.20;99.90;;;;;;5056883;28;20506;-63
2021/12/24 10:39:38;;;;;;;1999.90;999.90;;;10.30;99.90;;;;;;5046377;28;20985;-63
2021/12/24 10:42:09;;;;;;;1999.90;999.90;;;10.40;99.90;;;;;;5061036;28;20468;-67
2021/12/24 10:44:38;;;;;;;1999.90;999.90;;;10.40;99.90;;;;;;5060643;28;20441;-67
2021/12/24 10:47:09;;;;;;;1999.90;999.90;;;10.40;99.90;;;;;;5060563;28;21009;-63
2021/12/24 10:52:43;;;;;;;1999.90;999.90;;;10.40;99.90;;;;;;5052828;28;20425;-64
2021/12/24 10:55:12;;;;;;;1999.90;999.90;;;10.40;99.90;;;;;;5058449;28;20449;-63
2021/12/24 10:57:41;;;;;;;1999.90;999.90;;;10.40;99.90;;;;;;5056725;28;20519;-63
2021/12/24 11:00:19;;;;;;;1999.90;999.90;;;10.40;99.90;;;;;;5059708;28;20446;-63
2021/12/24 11:02:51;;;;;;;1999.90;999.90;;;10.40;99.90;;;;;;5060344;28;21783;-64
2021/12/24 11:05:39;;;;;;;1999.90;999.90;;;10.40;99.90;;;;;;5058174;28;20490;-63
2021/12/24 11:08:10;;;;;;;1999.90;999.90;;;10.40;99.90;;;;;;5050310;28;20553;-68
2021/12/24 11:10:39;;;;;;;1999.90;999.90;;;10.40;99.90;;;;;;5052489;28;20807;-67
2021/12/24 11:13:11;;;;;;;1999.90;999.90;;;10.40;99.90;;;;;;5057371;28;20515;-68
2021/12/24 11:15:41;;;;;;;1999.90;999.90;;;10.50;99.90;;;;;;5063223;28;20486;-68
2021/12/24 11:18:12;;;;;;;1999.90;999.90;;;10.50;99.90;;;;;;5057134;28;20512;-68
2021/12/24 11:20:39;;;;;;;1999.90;999.90;;;10.40;99.90;;;;;;5069346;28;20449;-67
2021/12/24 11:23:09;;;;;;;1999.90;999.90;;;10.40;99.90;;;;;;5064964;28;20497;-67
2021/12/24 11:25:39;;;;;;;1999.90;999.90;;;10.20;99.90;;;;;;5043663;28;20457;-67
2021/12/24 11:28:07;;;;;;;1999.90;999.90;;;10.20;99.90;;;;;;5051809;28;20469;-67
2021/12/24 11:30:36;;;;;;;1999.90;999.90;;;10.10;99.90;;;;;;5048926;28;20537;-67
2021/12/24 11:33:03;;;;;;;1999.90;999.90;;;10.10;99.90;;;;;;5050875;28;20446;-68
2021/12/24 11:35:31;;;;;;;1999.90;999.90;;;10.40;99.90;;;;;;5054886;28;20473;-69
2021/12/24 11:37:59;;;;;;;1999.90;999.90;;;10.50;99.90;;;;;;5050089;28;21031;-67
2021/12/24 11:40:29;;;;;;;1999.90;999.90;;;10.00;99.90;;;;;;5052807;28;20455;-68
2021/12/24 11:42:59;;;;;;;1999.90;999.90;;;9.90;99.90;;;;;;5053189;28;20450;-66
2021/12/24 11:45:27;;;;;;;1999.90;999.90;;;9.90;99.90;;;;;;5056085;28;20466;-67
2021/12/24 11:47:54;;;;;;;1999.90;999.90;;;9.90;99.90;;;;;;5060868;28;21051;-68
2021/12/24 11:50:22;;;;;;;1999.90;999.90;;;9.90;99.90;;;;;;5053954;28;20484;-68
2021/12/24 11:52:51;;;;;;;1999.90;999.90;;;9.90;99.90;;;;;;5050204;28;20482;-68
2021/12/24 11:55:20;;;;;;;1999.90;999.90;;;10.00;99.90;;;;;;5049758;28;20516;-67
2021/12/24 11:57:53;;;;;;;1999.90;999.90;;;10.00;99.90;;;;;;5049920;28;20829;-67
2021/12/24 12:00:26;;;;;;;1999.90;999.90;;;10.00;99.90;;;;;;5051627;28;20938;-66
2021/12/24 12:02:53;;;;;;;1999.90;999.90;;;9.90;99.90;;;;;;5051480;28;20949;-67
2021/12/24 12:05:24;;;;;;;1999.90;999.90;;;9.90;99.90;;;;;;5041960;28;20479;-68
2021/12/24 12:07:52;;;;;;;1999.90;999.90;;;9.90;99.90;;;;;;5040691;28;20548;-66
2021/12/24 12:10:49;;;;;;;1999.90;999.90;;;9.90;99.90;;;;;;5041210;28;20447;-67
2021/12/24 12:13:43;;;;;;;1999.90;999.90;;;9.80;99.90;;;;;;5001946;28;20458;-64
2021/12/24 12:16:11;;;;;;;1999.90;999.90;;;9.90;99.90;;;;;;5039125;28;20536;-65
2021/12/24 12:18:47;;;;;;;1999.90;999.90;;;9.80;99.90;;;;;;5042468;28;20895;-65
2021/12/24 12:21:21;;;;;;;1999.90;999.90;;;9.90;99.90;;;;;;5052198;28;20460;-67
2021/12/24 12:24:56;;;;;;;1999.90;999.90;;;9.90;99.90;;;;;;5052827;28;20437;-67
2021/12/24 12:26:42;;;;;;;1999.90;999.90;;;10.00;99.90;;;;;;5063249;28;20442;-67
2021/12/24 12:29:28;;;;;;;1999.90;999.90;;;10.10;99.90;;;;;;5051300;28;20557;-66
2021/12/24 12:32:05;;;;;;;1999.90;999.90;;;10.20;99.90;;;;;;5048808;28;20466;-67
2021/12/24 12:34:52;;;;;;;1999.90;999.90;;;10.20;99.90;;;;;;5046401;28;20487;-65
2021/12/24 12:37:20;;;;;;;1999.90;999.90;;;10.20;99.90;;;;;;5047442;28;20489;-65
2021/12/24 12:39:48;;;;;;;1999.90;999.90;;;10.10;99.90;;;;;;5048271;28;20458;-67
2021/12/24 12:42:17;;;;;;;1999.90;999.90;;;10.10;99.90;;;;;;5048704;28;20929;-66
2021/12/24 12:44:49;;;;;;;1999.90;999.90;;;10.10;99.90;;;;;;5048657;28;20949;-67
2021/12/24 12:47:18;;;;;;;1999.90;999.90;;;10.10;99.90;;;;;;5049512;28;20434;-67
2021/12/24 12:49:46;;;;;;;1999.90;999.90;;;10.00;99.90;;;;;;5048832;28;20986;-67
2021/12/24 12:52:23;;;;;;;1999.90;999.90;;;10.00;99.90;;;;;;5048764;28;20477;-66
2021/12/24 12:54:52;;;;;;;1999.90;999.90;;;9.90;99.90;;;;;;5049429;28;20438;-64
2021/12/24 12:57:30;;;;;;;1999.90;999.90;;;10.00;99.90;;;;;;5049556;28;20482;-67
2021/12/24 13:00:20;;;;;;;1999.90;999.90;;;10.00;99.90;;;;;;5048948;28;20454;-65
2021/12/24 13:03:11;;;;;;;1999.90;999.90;;;10.00;99.90;;;;;;5042952;28;21015;-68
2021/12/24 13:06:13;;;;;;;1999.90;999.90;;;9.90;99.90;;;;;;5048780;28;21011;-67
2021/12/24 13:08:41;;;;;;;1999.90;999.90;;;9.80;99.90;;;;;;5042248;28;20998;-67
2021/12/24 13:11:13;;;;;;;1999.90;999.90;;;9.80;99.90;;;;;;5041851;28;20450;-67
2021/12/24 13:13:56;;;;;;;1999.90;999.90;;;9.80;99.90;;;;;;5049049;28;20478;-68
2021/12/24 13:16:30;;;;;;;1999.90;999.90;;;9.80;99.90;;;;;;5051515;28;20565;-68
2021/12/24 13:19:09;;;;;;;1999.90;999.90;;;9.80;99.90;;;;;;5052625;28;20521;-67
2021/12/24 13:24:19;;;;;;;1999.90;999.90;;;9.60;99.90;;;;;;5052327;28;20437;-66